Time;durP1;ratioP1;P1;durP2;ratioP2;P2;SDS_P1;SDS_P2;PMS_P1;PMS_P2;Temp;Humidity;BMP_temperature;BMP_pressure;BME280_temperature;BME280_humidity;BME280_pressure;Samples;Min_cycle;Max_cycle;Signal;HPM_P1;HPM_P2
2021/11/15 00:01:51;;;;;;;0.20;0.20;;;;;;;;;;5094096;28;20931;-81
2021/11/15 00:04:17;;;;;;;0.30;0.30;;;;;;;;;;5094127;28;20024;-81
2021/11/15 00:06:43;;;;;;;0.47;0.47;;;;;;;;;;5093746;28;20028;-81
2021/11/15 00:09:08;;;;;;;0.90;0.85;;;;;;;;;;5094356;28;20024;-81
2021/11/15 00:11:34;;;;;;;0.57;0.57;;;;;;;;;;5093495;28;20035;-80
2021/11/15 00:13:59;;;;;;;0.80;0.80;;;;;;;;;;5093895;28;20032;-81
2021/11/15 00:16:24;;;;;;;0.28;0.22;;;;;;;;;;5093848;28;20360;-81
2021/11/15 00:18:50;;;;;;;0.95;0.95;;;;;;;;;;5093792;28;20035;-81
2021/11/15 00:21:15;;;;;;;1.52;0.98;;;;;;;;;;5093799;28;20028;-81
2021/11/15 00:23:40;;;;;;;0.40;0.40;;;;;;;;;;5093338;28;20035;-81
2021/11/15 00:26:06;;;;;;;1.52;1.17;;;;;;;;;;5093783;28;20048;-81
2021/11/15 00:28:31;;;;;;;0.30;0.30;;;;;;;;;;5093530;28;20034;-81
2021/11/15 00:30:57;;;;;;;1.13;0.70;;;;;;;;;;5093385;28;20416;-81
2021/11/15 00:33:22;;;;;;;0.17;0.17;;;;;;;;;;5093628;28;20039;-81
2021/11/15 00:35:47;;;;;;;0.35;0.35;;;;;;;;;;5093438;28;20124;-81
2021/11/15 00:38:13;;;;;;;0.47;0.47;;;;;;;;;;5093645;28;20047;-81
2021/11/15 00:40:38;;;;;;;0.30;0.30;;;;;;;;;;5093509;28;20024;-81
2021/11/15 00:43:04;;;;;;;2.28;0.95;;;;;;;;;;5093447;28;20039;-81
2021/11/15 00:45:30;;;;;;;0.60;0.60;;;;;;;;;;5093482;28;20055;-81
2021/11/15 00:47:55;;;;;;;0.73;0.65;;;;;;;;;;5097440;28;20050;-81
2021/11/15 00:50:21;;;;;;;1.25;1.17;;;;;;;;;;5097997;28;20035;-81
2021/11/15 00:52:47;;;;;;;0.10;0.10;;;;;;;;;;5097478;28;20115;-81
2021/11/15 00:55:12;;;;;;;0.30;0.30;;;;;;;;;;5097665;28;20489;-81
2021/11/15 00:57:38;;;;;;;0.10;0.10;;;;;;;;;;5097422;28;20034;-81
2021/11/15 01:00:05;;;;;;;0.40;0.40;;;;;;;;;;5097672;28;20095;-81
2021/11/15 01:02:30;;;;;;;2.17;1.25;;;;;;;;;;5097414;28;20016;-81
2021/11/15 01:04:56;;;;;;;0.90;0.90;;;;;;;;;;5097480;28;20035;-82
2021/11/15 01:07:21;;;;;;;0.40;0.40;;;;;;;;;;5097307;28;20168;-82
2021/11/15 01:09:46;;;;;;;0.73;0.73;;;;;;;;;;5097051;28;20095;-81
2021/11/15 01:12:11;;;;;;;0.20;0.20;;;;;;;;;;5097277;28;20097;-81
2021/11/15 01:14:37;;;;;;;2.97;1.75;;;;;;;;;;5096870;28;20099;-81
2021/11/15 01:17:03;;;;;;;0.35;0.35;;;;;;;;;;5097084;28;20016;-81
2021/11/15 01:19:28;;;;;;;0.28;0.28;;;;;;;;;;5097108;28;20035;-82
2021/11/15 01:21:53;;;;;;;1.00;0.98;;;;;;;;;;5097032;28;20020;-81
2021/11/15 01:24:19;;;;;;;0.10;0.10;;;;;;;;;;5097483;28;20024;-81
2021/11/15 01:26:44;;;;;;;0.88;0.88;;;;;;;;;;5096589;28;20081;-81
2021/11/15 01:29:11;;;;;;;1.25;0.68;;;;;;;;;;5097434;28;20024;-81
2021/11/15 01:31:38;;;;;;;0.70;0.70;;;;;;;;;;5096818;28;20020;-81
2021/11/15 01:34:03;;;;;;;0.20;0.20;;;;;;;;;;5096663;28;20396;-81
2021/11/15 01:36:29;;;;;;;0.77;0.77;;;;;;;;;;5096534;28;20040;-81
2021/11/15 01:38:54;;;;;;;4.07;1.95;;;;;;;;;;5096790;28;20055;-81
2021/11/15 01:41:19;;;;;;;0.40;0.35;;;;;;;;;;5096764;28;20468;-81
2021/11/15 01:43:45;;;;;;;0.50;0.50;;;;;;;;;;5096599;28;20020;-81
2021/11/15 01:46:10;;;;;;;0.35;0.35;;;;;;;;;;5096623;28;20103;-81
2021/11/15 01:48:35;;;;;;;0.32;0.32;;;;;;;;;;5096473;28;20115;-81
2021/11/15 01:51:01;;;;;;;0.70;0.70;;;;;;;;;;5096359;28;20438;-81
2021/11/15 01:53:26;;;;;;;0.85;0.80;;;;;;;;;;5096641;28;20028;-81
2021/11/15 01:55:51;;;;;;;2.80;2.60;;;;;;;;;;5096508;28;20032;-81
2021/11/15 01:58:17;;;;;;;0.50;0.50;;;;;;;;;;5095498;28;20060;-81
2021/11/15 02:00:44;;;;;;;0.32;0.32;;;;;;;;;;5096414;28;20020;-81
2021/11/15 02:03:10;;;;;;;0.73;0.70;;;;;;;;;;5096318;28;20358;-81
2021/11/15 02:05:36;;;;;;;0.82;0.82;;;;;;;;;;5096187;28;20027;-81
2021/11/15 02:08:01;;;;;;;1.45;1.27;;;;;;;;;;5095545;28;20020;-81
2021/11/15 02:10:27;;;;;;;0.30;0.30;;;;;;;;;;5096201;28;20043;-81
2021/11/15 02:12:52;;;;;;;1.13;1.02;;;;;;;;;;5096358;28;20040;-81
2021/11/15 02:15:18;;;;;;;0.38;0.38;;;;;;;;;;5095863;28;20020;-81
2021/11/15 02:17:44;;;;;;;0.73;0.73;;;;;;;;;;5096029;28;20106;-81
2021/11/15 02:20:32;;;;;;;2.22;2.08;;;;;;;;;;5095754;28;20479;-81
2021/11/15 02:22:58;;;;;;;0.25;0.25;;;;;;;;;;5095464;28;20063;-81
2021/11/15 02:25:25;;;;;;;0.65;0.65;;;;;;;;;;5096014;28;20071;-81
2021/11/15 02:27:50;;;;;;;0.70;0.70;;;;;;;;;;5111427;28;20365;-81
2021/11/15 02:30:18;;;;;;;1.17;1.08;;;;;;;;;;5095753;28;20028;-81
2021/11/15 02:32:43;;;;;;;0.65;0.65;;;;;;;;;;5095356;28;20516;-81
2021/11/15 02:35:09;;;;;;;1.40;0.95;;;;;;;;;;5095702;28;20020;-81
2021/11/15 02:37:35;;;;;;;0.65;0.65;;;;;;;;;;5095245;28;20475;-81
2021/11/15 02:40:01;;;;;;;0.82;0.80;;;;;;;;;;5095561;28;20032;-82
2021/11/15 02:42:26;;;;;;;0.65;0.65;;;;;;;;;;5095554;28;20020;-81
2021/11/15 02:44:52;;;;;;;1.20;1.13;;;;;;;;;;5095522;28;20357;-81
2021/11/15 02:47:20;;;;;;;0.60;0.60;;;;;;;;;;5095861;28;20505;-81
2021/11/15 02:49:46;;;;;;;0.90;0.90;;;;;;;;;;5095384;28;20016;-81
2021/11/15 02:52:11;;;;;;;0.68;0.68;;;;;;;;;;5095620;28;20376;-81
2021/11/15 02:54:38;;;;;;;0.40;0.40;;;;;;;;;;5095245;28;20063;-81
2021/11/15 02:57:03;;;;;;;0.13;0.13;;;;;;;;;;5095265;28;20024;-81
2021/11/15 02:59:29;;;;;;;1.45;1.35;;;;;;;;;;5094995;28;20031;-82
2021/11/15 03:01:54;;;;;;;0.25;0.25;;;;;;;;;;5110935;28;20111;-81
2021/11/15 03:04:19;;;;;;;2.13;1.95;;;;;;;;;;5095113;28;20012;-81
2021/11/15 03:06:44;;;;;;;0.50;0.50;;;;;;;;;;5094647;28;20383;-81
2021/11/15 03:09:10;;;;;;;2.50;1.20;;;;;;;;;;5095416;28;20028;-81
2021/11/15 03:11:35;;;;;;;0.45;0.45;;;;;;;;;;5094985;28;20019;-81
2021/11/15 03:14:00;;;;;;;1.00;1.00;;;;;;;;;;5094573;28;20480;-81
2021/11/15 03:16:26;;;;;;;1.30;1.25;;;;;;;;;;5095047;28;20115;-81
2021/11/15 03:18:51;;;;;;;0.22;0.22;;;;;;;;;;5094773;28;20107;-81
2021/11/15 03:21:18;;;;;;;1.42;1.33;;;;;;;;;;5094805;28;20047;-81
2021/11/15 03:23:45;;;;;;;0.95;0.95;;;;;;;;;;5094666;28;20480;-80
2021/11/15 03:26:11;;;;;;;1.98;1.00;;;;;;;;;;5094545;28;20026;-81
2021/11/15 03:28:38;;;;;;;0.30;0.30;;;;;;;;;;5094672;28;20024;-81
2021/11/15 03:31:05;;;;;;;0.10;0.10;;;;;;;;;;5094672;28;20088;-81
2021/11/15 03:33:31;;;;;;;0.38;0.38;;;;;;;;;;5094620;28;20040;-81
2021/11/15 03:35:57;;;;;;;0.25;0.25;;;;;;;;;;5094240;28;20081;-81
2021/11/15 03:38:22;;;;;;;0.40;0.40;;;;;;;;;;5094374;28;20032;-81
2021/11/15 03:40:48;;;;;;;4.30;0.82;;;;;;;;;;5094368;28;20020;-81
2021/11/15 03:43:13;;;;;;;0.22;0.22;;;;;;;;;;5094085;28;20043;-81
2021/11/15 03:45:39;;;;;;;0.85;0.85;;;;;;;;;;5094345;28;20032;-81
2021/11/15 03:48:06;;;;;;;0.75;0.75;;;;;;;;;;5094371;28;20030;-81
2021/11/15 03:50:31;;;;;;;1.13;1.05;;;;;;;;;;5094237;28;20039;-82
2021/11/15 03:52:58;;;;;;;0.45;0.45;;;;;;;;;;5094110;28;20756;-81
2021/11/15 03:55:24;;;;;;;0.75;0.75;;;;;;;;;;5094177;28;20016;-81
2021/11/15 03:57:50;;;;;;;0.77;0.68;;;;;;;;;;5094132;28;20028;-82
2021/11/15 04:00:17;;;;;;;0.90;0.90;;;;;;;;;;5094119;28;20034;-82
2021/11/15 04:02:45;;;;;;;0.45;0.45;;;;;;;;;;5094071;28;20088;-81
2021/11/15 04:05:11;;;;;;;2.70;2.38;;;;;;;;;;5094004;28;20051;-81
2021/11/15 04:07:39;;;;;;;0.85;0.85;;;;;;;;;;5092637;28;20135;-81
2021/11/15 04:10:07;;;;;;;0.45;0.45;;;;;;;;;;5093908;28;20051;-82
2021/11/15 04:12:32;;;;;;;0.55;0.55;;;;;;;;;;5093931;28;20118;-81
2021/11/15 04:14:58;;;;;;;0.60;0.60;;;;;;;;;;5093800;28;20119;-82
2021/11/15 04:17:23;;;;;;;1.83;1.67;;;;;;;;;;5093956;28;20023;-81
2021/11/15 04:19:50;;;;;;;3.78;2.08;;;;;;;;;;5093635;28;20032;-82
2021/11/15 04:22:15;;;;;;;0.65;0.65;;;;;;;;;;5093342;28;20380;-82
2021/11/15 04:24:41;;;;;;;1.25;0.98;;;;;;;;;;5093646;28;20020;-81
2021/11/15 04:27:08;;;;;;;0.75;0.75;;;;;;;;;;5093807;28;20035;-81
2021/11/15 04:29:33;;;;;;;3.40;0.75;;;;;;;;;;5093679;28;20093;-81
2021/11/15 04:31:58;;;;;;;2.22;1.55;;;;;;;;;;5093133;28;20430;-81
2021/11/15 04:34:24;;;;;;;3.10;1.65;;;;;;;;;;5093692;28;20063;-82
2021/11/15 04:36:49;;;;;;;0.52;0.52;;;;;;;;;;5091931;28;20491;-82
2021/11/15 04:39:14;;;;;;;1.20;1.10;;;;;;;;;;5093535;28;20016;-82
2021/11/15 04:41:40;;;;;;;0.52;0.52;;;;;;;;;;5093789;28;20040;-81
2021/11/15 04:44:05;;;;;;;0.10;0.10;;;;;;;;;;5093482;28;20089;-82
2021/11/15 04:46:31;;;;;;;1.98;1.63;;;;;;;;;;5093518;28;20016;-82
2021/11/15 04:48:56;;;;;;;0.98;0.98;;;;;;;;;;5093379;28;20081;-81
2021/11/15 04:51:21;;;;;;;0.55;0.55;;;;;;;;;;5093408;28;20032;-81
2021/11/15 04:53:47;;;;;;;5.10;1.98;;;;;;;;;;5093152;28;20468;-82
2021/11/15 04:56:12;;;;;;;0.38;0.38;;;;;;;;;;5093347;28;20150;-82
2021/11/15 04:58:37;;;;;;;2.00;1.02;;;;;;;;;;5093405;28;20060;-82
2021/11/15 05:01:04;;;;;;;0.52;0.52;;;;;;;;;;5093332;28;20052;-81
2021/11/15 05:03:29;;;;;;;0.52;0.50;;;;;;;;;;5093387;28;20043;-81
2021/11/15 05:05:55;;;;;;;1.83;1.73;;;;;;;;;;5093218;28;20028;-81
2021/11/15 05:08:20;;;;;;;0.45;0.40;;;;;;;;;;5093193;28;20027;-81
2021/11/15 05:10:45;;;;;;;1.75;1.63;;;;;;;;;;5093159;28;20436;-82
2021/11/15 05:13:10;;;;;;;2.05;1.95;;;;;;;;;;5093175;28;20063;-81
2021/11/15 05:15:36;;;;;;;1.05;1.05;;;;;;;;;;5092995;28;20099;-82
2021/11/15 05:18:01;;;;;;;3.35;2.72;;;;;;;;;;5093158;28;20024;-82
2021/11/15 05:20:27;;;;;;;0.50;0.47;;;;;;;;;;5093189;28;20028;-81
2021/11/15 05:22:52;;;;;;;1.65;1.55;;;;;;;;;;5093167;28;20380;-81
2021/11/15 05:25:18;;;;;;;4.57;2.55;;;;;;;;;;5093137;28;20026;-82
2021/11/15 05:27:43;;;;;;;5.38;1.92;;;;;;;;;;5093085;28;20059;-81
2021/11/15 05:30:11;;;;;;;1.20;1.17;;;;;;;;;;5092393;28;20016;-81
2021/11/15 05:32:36;;;;;;;1.25;0.73;;;;;;;;;;5092867;28;20484;-81
2021/11/15 05:35:03;;;;;;;0.47;0.47;;;;;;;;;;5096870;28;20051;-81
2021/11/15 05:37:28;;;;;;;0.57;0.57;;;;;;;;;;5112152;28;20458;-81
2021/11/15 05:39:54;;;;;;;0.10;0.10;;;;;;;;;;5096797;28;20105;-81
2021/11/15 05:42:20;;;;;;;3.38;0.60;;;;;;;;;;5096733;28;20046;-82
2021/11/15 05:44:45;;;;;;;5.28;2.92;;;;;;;;;;5096246;28;20081;-81
2021/11/15 05:47:10;;;;;;;0.55;0.40;;;;;;;;;;5096733;28;20362;-81
2021/11/15 05:49:36;;;;;;;2.05;1.85;;;;;;;;;;5096534;28;20384;-81
2021/11/15 05:52:01;;;;;;;1.10;0.55;;;;;;;;;;5096550;28;20460;-81
2021/11/15 05:54:27;;;;;;;0.75;0.75;;;;;;;;;;5096621;28;20456;-81
2021/11/15 05:56:52;;;;;;;0.68;0.68;;;;;;;;;;5096429;28;20028;-81
2021/11/15 05:59:18;;;;;;;0.10;0.10;;;;;;;;;;5096500;28;20024;-81
2021/11/15 06:01:43;;;;;;;0.93;0.93;;;;;;;;;;5096363;28;20460;-81
2021/11/15 06:04:09;;;;;;;0.60;0.60;;;;;;;;;;5096400;28;20392;-81
2021/11/15 06:06:34;;;;;;;1.40;1.02;;;;;;;;;;5096267;28;20020;-81
2021/11/15 06:09:00;;;;;;;0.20;0.20;;;;;;;;;;5095991;28;20031;-81
2021/11/15 06:11:25;;;;;;;3.25;1.13;;;;;;;;;;5096008;28;20102;-82
2021/11/15 06:13:50;;;;;;;0.82;0.82;;;;;;;;;;5096037;28;20034;-81
2021/11/15 06:16:16;;;;;;;0.55;0.55;;;;;;;;;;5096194;28;20070;-81
2021/11/15 06:18:41;;;;;;;0.73;0.73;;;;;;;;;;5096066;28;20032;-81
2021/11/15 06:21:07;;;;;;;2.33;0.63;;;;;;;;;;5095996;28;20024;-81
2021/11/15 06:23:32;;;;;;;0.85;0.85;;;;;;;;;;5094794;28;20051;-81
2021/11/15 06:25:58;;;;;;;1.00;0.98;;;;;;;;;;5094614;28;20028;-81
2021/11/15 06:28:23;;;;;;;0.75;0.50;;;;;;;;;;5095926;28;20039;-81
2021/11/15 06:30:48;;;;;;;0.98;0.98;;;;;;;;;;5095411;28;20083;-81
2021/11/15 06:33:14;;;;;;;1.27;1.17;;;;;;;;;;5095760;28;20040;-81
2021/11/15 06:35:39;;;;;;;1.17;1.08;;;;;;;;;;5095801;28;20022;-81
2021/11/15 06:38:05;;;;;;;1.17;1.17;;;;;;;;;;5094472;28;20464;-81
2021/11/15 06:40:30;;;;;;;0.50;0.50;;;;;;;;;;5095675;28;20032;-81
2021/11/15 06:42:56;;;;;;;8.07;3.45;;;;;;;;;;5095552;28;20360;-81
2021/11/15 06:45:21;;;;;;;1.35;1.05;;;;;;;;;;5095279;28;20060;-81
2021/11/15 06:47:47;;;;;;;1.02;0.70;;;;;;;;;;5095482;28;20032;-81
2021/11/15 06:50:14;;;;;;;0.85;0.85;;;;;;;;;;5095525;28;20023;-81
2021/11/15 06:52:40;;;;;;;0.10;0.10;;;;;;;;;;5094999;28;20047;-81
2021/11/15 06:55:06;;;;;;;1.17;1.10;;;;;;;;;;5095388;28;20024;-81
2021/11/15 06:57:32;;;;;;;1.00;0.98;;;;;;;;;;5095235;28;20016;-81
2021/11/15 06:59:57;;;;;;;1.05;1.02;;;;;;;;;;5095014;28;20028;-81
2021/11/15 07:02:22;;;;;;;0.30;0.30;;;;;;;;;;5095278;28;20043;-81
2021/11/15 07:04:48;;;;;;;0.73;0.73;;;;;;;;;;5095161;28;20046;-81
2021/11/15 07:07:14;;;;;;;0.75;0.73;;;;;;;;;;5095031;28;20588;-81
2021/11/15 07:09:40;;;;;;;1.95;1.80;;;;;;;;;;5095009;28;20031;-82
2021/11/15 07:12:05;;;;;;;0.85;0.85;;;;;;;;;;5094888;28;20487;-81
2021/11/15 07:14:30;;;;;;;0.35;0.35;;;;;;;;;;5094640;28;20113;-82
2021/11/15 07:16:56;;;;;;;0.57;0.57;;;;;;;;;;5095140;28;20039;-82
2021/11/15 07:19:21;;;;;;;1.20;0.88;;;;;;;;;;5094889;28;20020;-82
2021/11/15 07:21:47;;;;;;;0.40;0.38;;;;;;;;;;5094709;28;20036;-81
2021/11/15 07:24:13;;;;;;;0.40;0.40;;;;;;;;;;5094939;28;20032;-81
2021/11/15 07:26:38;;;;;;;0.85;0.85;;;;;;;;;;5094703;28;20028;-81
2021/11/15 07:29:03;;;;;;;0.77;0.75;;;;;;;;;;5094723;28;20116;-81
2021/11/15 07:31:29;;;;;;;0.60;0.60;;;;;;;;;;5094856;28;20039;-82
2021/11/15 07:33:56;;;;;;;11.10;2.03;;;;;;;;;;5094862;28;20031;-81
2021/11/15 07:36:21;;;;;;;0.17;0.17;;;;;;;;;;5094098;28;20048;-81
2021/11/15 07:38:47;;;;;;;0.65;0.65;;;;;;;;;;5094386;28;20024;-82
2021/11/15 07:41:12;;;;;;;0.75;0.75;;;;;;;;;;5094601;28;20028;-82
2021/11/15 07:43:38;;;;;;;1.08;1.08;;;;;;;;;;5093988;28;20043;-82
2021/11/15 07:46:03;;;;;;;2.17;1.10;;;;;;;;;;5094325;28;20050;-81
2021/11/15 07:48:29;;;;;;;0.55;0.55;;;;;;;;;;5094385;28;20024;-81
2021/11/15 07:50:55;;;;;;;0.88;0.88;;;;;;;;;;5094101;28;20028;-81
2021/11/15 07:53:20;;;;;;;1.17;1.08;;;;;;;;;;5094139;28;20039;-81
2021/11/15 07:55:46;;;;;;;1.10;1.08;;;;;;;;;;5093423;28;20082;-81
2021/11/15 07:58:13;;;;;;;0.75;0.75;;;;;;;;;;5094157;28;20081;-82
2021/11/15 08:00:39;;;;;;;1.10;1.08;;;;;;;;;;5093754;28;20477;-81
2021/11/15 08:03:05;;;;;;;1.45;1.33;;;;;;;;;;5093953;28;20027;-81
2021/11/15 08:05:30;;;;;;;0.25;0.25;;;;;;;;;;5094110;28;20030;-82
2021/11/15 08:07:56;;;;;;;4.70;2.58;;;;;;;;;;5093650;28;20081;-82
2021/11/15 08:10:21;;;;;;;0.60;0.60;;;;;;;;;;5093723;28;20430;-82
2021/11/15 08:12:49;;;;;;;0.10;0.10;;;;;;;;;;5093742;28;20044;-82
2021/11/15 08:15:15;;;;;;;0.30;0.30;;;;;;;;;;5093990;28;20077;-81
2021/11/15 08:17:42;;;;;;;0.20;0.20;;;;;;;;;;5093815;28;20048;-82
2021/11/15 08:20:10;;;;;;;1.58;0.63;;;;;;;;;;5093492;28;20028;-81
2021/11/15 08:22:36;;;;;;;1.80;1.70;;;;;;;;;;5093767;28;20028;-81
2021/11/15 08:25:30;;;;;;;0.65;0.65;;;;;;;;;;5093707;28;20020;-82
2021/11/15 08:27:56;;;;;;;0.80;0.80;;;;;;;;;;5093162;28;20158;-82
2021/11/15 08:30:22;;;;;;;0.52;0.52;;;;;;;;;;5092372;28;20413;-81
2021/11/15 08:32:47;;;;;;;2.50;1.75;;;;;;;;;;5092027;28;20139;-81
2021/11/15 08:35:13;;;;;;;1.08;1.00;;;;;;;;;;5092656;28;20035;-81
2021/11/15 08:37:41;;;;;;;1.70;1.42;;;;;;;;;;5092613;28;20065;-81
2021/11/15 08:40:06;;;;;;;5.65;1.67;;;;;;;;;;5092364;28;20027;-81
2021/11/15 08:42:32;;;;;;;0.63;0.63;;;;;;;;;;5093215;28;20403;-81
2021/11/15 08:45:01;;;;;;;1.33;1.23;;;;;;;;;;5081804;28;20093;-81
2021/11/15 08:47:26;;;;;;;0.38;0.38;;;;;;;;;;5089948;28;20511;-84
2021/11/15 08:49:52;;;;;;;3.22;2.92;;;;;;;;;;5072934;28;20032;-81
2021/11/15 08:52:18;;;;;;;0.40;0.40;;;;;;;;;;5072851;28;20039;-81
2021/11/15 08:54:48;;;;;;;0.55;0.52;;;;;;;;;;5071827;28;20028;-81
2021/11/15 08:57:13;;;;;;;1.08;0.98;;;;;;;;;;5082469;28;20050;-79
2021/11/15 08:59:39;;;;;;;12.70;0.95;;;;;;;;;;5093064;28;20024;-80
2021/11/15 09:02:04;;;;;;;0.43;0.43;;;;;;;;;;5092054;28;20023;-80
2021/11/15 09:04:29;;;;;;;2.15;1.95;;;;;;;;;;5087705;28;20025;-79
2021/11/15 09:06:55;;;;;;;0.57;0.55;;;;;;;;;;5089542;28;20646;-79
2021/11/15 09:09:22;;;;;;;1.23;0.90;;;;;;;;;;5093272;28;20043;-80
2021/11/15 09:11:52;;;;;;;0.15;0.15;;;;;;;;;;5073106;28;20473;-80
2021/11/15 09:14:18;;;;;;;1.35;1.25;;;;;;;;;;5072918;28;20388;-80
2021/11/15 09:16:44;;;;;;;3.92;1.92;;;;;;;;;;5073937;28;20136;-80
2021/11/15 09:19:10;;;;;;;2.15;1.42;;;;;;;;;;5071489;28;20487;-80
2021/11/15 09:21:36;;;;;;;0.82;0.82;;;;;;;;;;5086515;28;20032;-80
2021/11/15 09:24:02;;;;;;;0.47;0.47;;;;;;;;;;5093260;28;20111;-80
2021/11/15 09:26:28;;;;;;;3.47;2.70;;;;;;;;;;5089859;28;20165;-80
2021/11/15 09:28:58;;;;;;;1.00;1.00;;;;;;;;;;5093239;28;20089;-80
2021/11/15 09:31:23;;;;;;;1.85;0.90;;;;;;;;;;5093699;28;20472;-80
2021/11/15 09:33:50;;;;;;;0.80;0.80;;;;;;;;;;5092721;28;20078;-80
2021/11/15 09:36:16;;;;;;;0.80;0.80;;;;;;;;;;5091149;28;20048;-80
2021/11/15 09:38:44;;;;;;;0.75;0.70;;;;;;;;;;5090030;28;20562;-80
2021/11/15 09:41:09;;;;;;;3.65;1.77;;;;;;;;;;5092122;28;20020;-80
2021/11/15 09:43:36;;;;;;;1.60;1.33;;;;;;;;;;5092727;28;20511;-80
2021/11/15 09:46:13;;;;;;;1.40;1.30;;;;;;;;;;5092975;28;20020;-80
2021/11/15 09:48:42;;;;;;;2.67;2.38;;;;;;;;;;5092023;28;20059;-80
2021/11/15 09:51:07;;;;;;;7.85;1.65;;;;;;;;;;5093210;28;20044;-80
2021/11/15 09:53:33;;;;;;;1.40;1.30;;;;;;;;;;5093285;28;20084;-80
2021/11/15 09:55:59;;;;;;;0.50;0.50;;;;;;;;;;5092222;28;20046;-80
2021/11/15 09:58:24;;;;;;;4.82;2.20;;;;;;;;;;5092246;28;20032;-80
2021/11/15 10:00:50;;;;;;;6.40;2.85;;;;;;;;;;5092545;28;20031;-80
2021/11/15 10:03:16;;;;;;;0.47;0.47;;;;;;;;;;5092362;28;20563;-81
2021/11/15 10:05:41;;;;;;;3.47;1.70;;;;;;;;;;5093125;28;20428;-80
2021/11/15 10:08:12;;;;;;;4.45;2.03;;;;;;;;;;5075649;28;20047;-81
2021/11/15 10:10:41;;;;;;;3.58;1.55;;;;;;;;;;5071469;28;20473;-80
2021/11/15 10:13:12;;;;;;;0.40;0.40;;;;;;;;;;5071552;28;20891;-81
2021/11/15 10:15:53;;;;;;;0.50;0.50;;;;;;;;;;5072456;28;20178;-80
2021/11/15 10:18:29;;;;;;;1.55;1.45;;;;;;;;;;5072023;28;20028;-81
2021/11/15 10:20:54;;;;;;;0.82;0.82;;;;;;;;;;5071797;28;20036;-81
2021/11/15 10:23:31;;;;;;;0.73;0.73;;;;;;;;;;5072153;28;20032;-80
2021/11/15 10:26:00;;;;;;;0.47;0.47;;;;;;;;;;5072290;28;20024;-80
2021/11/15 10:28:27;;;;;;;1.75;1.60;;;;;;;;;;5071443;28;20041;-81
2021/11/15 10:30:52;;;;;;;1.40;1.30;;;;;;;;;;5072243;28;20099;-80
2021/11/15 10:33:18;;;;;;;2.03;1.02;;;;;;;;;;5071443;28;20127;-80
2021/11/15 10:35:46;;;;;;;5.72;2.83;;;;;;;;;;5071663;28;20040;-80
2021/11/15 10:38:11;;;;;;;1.48;1.38;;;;;;;;;;5067472;28;20444;-80
2021/11/15 10:40:37;;;;;;;0.47;0.47;;;;;;;;;;5069307;28;20140;-80
2021/11/15 10:43:07;;;;;;;1.20;1.17;;;;;;;;;;5071061;28;20060;-80
2021/11/15 10:45:32;;;;;;;2.35;2.20;;;;;;;;;;5070919;28;20785;-80
2021/11/15 10:47:59;;;;;;;0.70;0.70;;;;;;;;;;5076928;28;20035;-80
2021/11/15 10:50:29;;;;;;;6.50;2.83;;;;;;;;;;5091586;28;20063;-80
2021/11/15 10:53:18;;;;;;;1.45;1.27;;;;;;;;;;5091549;28;20032;-80
2021/11/15 10:55:47;;;;;;;6.63;2.33;;;;;;;;;;5091716;28;20028;-80
2021/11/15 10:58:17;;;;;;;0.60;0.60;;;;;;;;;;5090235;28;20035;-80
2021/11/15 11:00:51;;;;;;;1.48;1.38;;;;;;;;;;5089465;28;20429;-80
2021/11/15 11:03:19;;;;;;;1.73;1.00;;;;;;;;;;5090979;28;20103;-80
2021/11/15 11:05:46;;;;;;;1.48;0.77;;;;;;;;;;5091286;28;20119;-80
2021/11/15 11:08:20;;;;;;;0.10;0.10;;;;;;;;;;5073413;28;20078;-80
2021/11/15 11:10:53;;;;;;;2.72;2.53;;;;;;;;;;5070200;28;20488;-80
2021/11/15 11:13:20;;;;;;;1.27;1.17;;;;;;;;;;5071058;28;20050;-80
2021/11/15 11:15:48;;;;;;;0.68;0.68;;;;;;;;;;5071236;28;20020;-80
2021/11/15 11:18:24;;;;;;;6.15;2.08;;;;;;;;;;5070331;28;20040;-81
2021/11/15 11:26:28;;;;;;;0.75;0.75;;;;;;;;;;5070577;28;20035;-80
2021/11/15 11:28:59;;;;;;;4.75;3.60;;;;;;;;;;5078602;28;20403;-80
2021/11/15 11:31:26;;;;;;;1.00;0.95;;;;;;;;;;5090155;28;20028;-80
2021/11/15 11:33:51;;;;;;;1.08;1.05;;;;;;;;;;5090872;28;20047;-80
2021/11/15 11:36:16;;;;;;;1.38;1.30;;;;;;;;;;5090687;28;20048;-80
2021/11/15 11:38:42;;;;;;;1.25;1.10;;;;;;;;;;5089741;28;20020;-80
2021/11/15 11:41:08;;;;;;;2.75;2.00;;;;;;;;;;5090502;28;20069;-80
2021/11/15 11:43:33;;;;;;;1.02;1.02;;;;;;;;;;5089800;28;20036;-80
2021/11/15 11:45:59;;;;;;;0.75;0.75;;;;;;;;;;5091281;28;20441;-81
2021/11/15 11:48:25;;;;;;;4.10;2.22;;;;;;;;;;5089887;28;20043;-80
2021/11/15 11:50:52;;;;;;;3.97;2.60;;;;;;;;;;5090792;28;20109;-80
2021/11/15 11:53:19;;;;;;;9.02;2.22;;;;;;;;;;5090066;28;20110;-80
2021/11/15 11:55:45;;;;;;;1.40;1.30;;;;;;;;;;5090812;28;20043;-80
2021/11/15 11:58:43;;;;;;;0.20;0.20;;;;;;;;;;5090382;28;20538;-80
2021/11/15 12:01:24;;;;;;;4.15;1.73;;;;;;;;;;5082362;28;20036;-80
2021/11/15 12:04:08;;;;;;;3.28;2.05;;;;;;;;;;5089430;28;20406;-80
2021/11/15 12:06:34;;;;;;;1.88;1.25;;;;;;;;;;5086799;28;20497;-80
2021/11/15 12:08:59;;;;;;;0.57;0.57;;;;;;;;;;5069506;28;20072;-80
2021/11/15 12:11:26;;;;;;;2.70;1.50;;;;;;;;;;5066657;28;20460;-80
2021/11/15 12:13:52;;;;;;;2.75;1.33;;;;;;;;;;5069176;28;20039;-80
2021/11/15 12:16:17;;;;;;;3.42;2.55;;;;;;;;;;5069701;28;20028;-79
2021/11/15 12:18:53;;;;;;;2.65;1.60;;;;;;;;;;5069857;28;20025;-80
2021/11/15 12:21:22;;;;;;;2.53;1.15;;;;;;;;;;5069958;28;20035;-80
2021/11/15 12:23:53;;;;;;;2.75;1.65;;;;;;;;;;5069598;28;20036;-80
2021/11/15 12:26:24;;;;;;;3.85;3.47;;;;;;;;;;5070664;28;20017;-80
2021/11/15 12:28:50;;;;;;;0.55;0.55;;;;;;;;;;5070452;28;20032;-80
2021/11/15 12:31:16;;;;;;;0.43;0.43;;;;;;;;;;5070038;28;20373;-80
2021/11/15 12:33:42;;;;;;;4.28;3.88;;;;;;;;;;5069564;28;20028;-80
2021/11/15 12:36:09;;;;;;;3.42;3.15;;;;;;;;;;5069823;28;20500;-80
2021/11/15 12:38:34;;;;;;;3.22;2.22;;;;;;;;;;5069576;28;20044;-79
2021/11/15 12:41:01;;;;;;;2.17;2.00;;;;;;;;;;5070497;28;20441;-80
2021/11/15 12:43:27;;;;;;;4.07;3.35;;;;;;;;;;5069484;28;20465;-80
2021/11/15 12:46:13;;;;;;;28.33;2.63;;;;;;;;;;5069417;28;20071;-79
2021/11/15 12:48:43;;;;;;;1.02;1.02;;;;;;;;;;5069710;28;20020;-80
2021/11/15 12:51:16;;;;;;;2.13;2.03;;;;;;;;;;5069922;28;20373;-80
2021/11/15 12:53:42;;;;;;;2.50;2.30;;;;;;;;;;5065606;28;20068;-80
2021/11/15 12:56:07;;;;;;;3.03;2.72;;;;;;;;;;5068551;28;20472;-80
2021/11/15 12:58:33;;;;;;;3.20;2.30;;;;;;;;;;5069457;28;20040;-80
2021/11/15 13:00:58;;;;;;;1.58;1.48;;;;;;;;;;5068720;28;20032;-80
2021/11/15 13:03:25;;;;;;;8.98;3.53;;;;;;;;;;5067579;28;20144;-80
2021/11/15 13:05:50;;;;;;;3.75;2.05;;;;;;;;;;5068843;28;20468;-79
2021/11/15 13:08:16;;;;;;;6.38;2.55;;;;;;;;;;5077696;28;20059;-79
2021/11/15 13:10:47;;;;;;;2.25;1.92;;;;;;;;;;5069360;28;20112;-80
2021/11/15 13:13:13;;;;;;;1.38;1.08;;;;;;;;;;5069462;28;20035;-80
2021/11/15 13:15:39;;;;;;;1.67;1.58;;;;;;;;;;5068753;28;20536;-80
2021/11/15 13:18:04;;;;;;;4.50;2.03;;;;;;;;;;5069613;28;20143;-80
2021/11/15 13:20:30;;;;;;;2.45;2.25;;;;;;;;;;5069402;28;20103;-80
2021/11/15 13:22:55;;;;;;;0.75;0.75;;;;;;;;;;5069201;28;20032;-79
2021/11/15 13:25:22;;;;;;;2.72;2.30;;;;;;;;;;5069671;28;20060;-79
2021/11/15 13:27:48;;;;;;;3.30;2.47;;;;;;;;;;5069444;28;20051;-80
2021/11/15 13:30:15;;;;;;;5.40;2.70;;;;;;;;;;5068923;28;20036;-79
2021/11/15 13:32:54;;;;;;;2.70;1.92;;;;;;;;;;5068749;28;20590;-79
2021/11/15 13:35:20;;;;;;;2.08;1.77;;;;;;;;;;5069338;28;20078;-80
2021/11/15 13:37:46;;;;;;;6.70;3.30;;;;;;;;;;5068922;28;20060;-79
2021/11/15 13:40:12;;;;;;;2.08;1.90;;;;;;;;;;5069054;28;20077;-80
2021/11/15 13:42:37;;;;;;;2.67;2.00;;;;;;;;;;5069147;28;20032;-79
2021/11/15 13:45:04;;;;;;;2.70;2.50;;;;;;;;;;5068531;28;20487;-80
2021/11/15 13:47:29;;;;;;;1.70;1.27;;;;;;;;;;5069022;28;20027;-79
2021/11/15 13:49:54;;;;;;;1.38;1.20;;;;;;;;;;5069031;28;20028;-80
2021/11/15 13:52:20;;;;;;;0.40;0.40;;;;;;;;;;5069110;28;20068;-80
2021/11/15 13:54:47;;;;;;;3.92;2.72;;;;;;;;;;5070633;28;20453;-80
2021/11/15 13:57:13;;;;;;;6.63;4.10;;;;;;;;;;5072173;28;20086;-80
2021/11/15 13:59:40;;;;;;;1.38;1.27;;;;;;;;;;5072334;28;20028;-79
2021/11/15 14:02:06;;;;;;;4.38;3.50;;;;;;;;;;5072435;28;20111;-79
2021/11/15 14:04:31;;;;;;;3.60;3.00;;;;;;;;;;5072495;28;20132;-80
2021/11/15 14:06:56;;;;;;;6.03;1.55;;;;;;;;;;5077901;28;20374;-80
2021/11/15 14:09:22;;;;;;;2.88;1.75;;;;;;;;;;5092012;28;20020;-80
2021/11/15 14:11:47;;;;;;;1.67;1.55;;;;;;;;;;5092190;28;20038;-78
2021/11/15 14:14:12;;;;;;;2.92;2.72;;;;;;;;;;5091721;28;20074;-79
2021/11/15 14:16:38;;;;;;;2.47;1.45;;;;;;;;;;5092607;28;20028;-79
2021/11/15 14:19:03;;;;;;;4.95;3.05;;;;;;;;;;5090450;28;20051;-79
2021/11/15 14:21:28;;;;;;;1.75;1.65;;;;;;;;;;5092657;28;20046;-79
2021/11/15 14:23:54;;;;;;;1.60;0.82;;;;;;;;;;5090945;28;20410;-79
2021/11/15 14:26:19;;;;;;;1.67;1.58;;;;;;;;;;5092076;28;20461;-80
2021/11/15 14:28:45;;;;;;;2.30;2.03;;;;;;;;;;5091088;28;20035;-80
2021/11/15 14:31:11;;;;;;;2.70;1.95;;;;;;;;;;5091397;28;20020;-80
2021/11/15 14:33:37;;;;;;;1.33;1.20;;;;;;;;;;5091919;28;20036;-80
2021/11/15 14:36:02;;;;;;;1.83;1.73;;;;;;;;;;5091466;28;20048;-80
2021/11/15 14:38:27;;;;;;;1.33;1.17;;;;;;;;;;5091817;28;20020;-80
2021/11/15 14:40:53;;;;;;;6.65;2.05;;;;;;;;;;5092147;28;20028;-79
2021/11/15 14:43:18;;;;;;;0.90;0.90;;;;;;;;;;5091500;28;20024;-80
2021/11/15 14:45:43;;;;;;;2.35;1.67;;;;;;;;;;5091414;28;20034;-80